createdAt,value
2018-09-30T00:00:34.973Z,1.90
2018-09-30T00:06:07.663Z,1.77
2018-09-30T00:08:41.665Z,1.43
2018-09-30T00:16:59.780Z,1.40
2018-09-30T00:19:34.459Z,1.67
2018-09-30T00:25:05.464Z,1.53
2018-09-30T00:27:44.636Z,1.50
2018-09-30T00:30:18.901Z,1.63
2018-09-30T00:32:56.446Z,1.73
2018-09-30T00:38:36.459Z,1.40
2018-09-30T00:41:10.720Z,1.17
2018-09-30T00:43:44.684Z,0.93
2018-09-30T00:46:18.577Z,1.30
2018-09-30T00:48:52.402Z,1.50
2018-09-30T00:51:27.788Z,1.70
2018-09-30T00:54:02.001Z,1.40
2018-09-30T00:56:36.165Z,1.30
2018-09-30T00:59:10.250Z,1.37
2018-09-30T01:01:46.780Z,1.50
2018-09-30T01:04:25.071Z,1.23
2018-09-30T01:06:59.572Z,1.60
2018-09-30T01:09:33.677Z,1.17
2018-09-30T01:12:07.756Z,1.37
2018-09-30T01:14:41.828Z,1.70
2018-09-30T01:17:15.708Z,1.63
2018-09-30T01:19:49.727Z,1.33
2018-09-30T01:22:23.687Z,1.10
2018-09-30T01:25:15.090Z,1.30
2018-09-30T01:27:53.531Z,1.47
2018-09-30T01:35:34.738Z,1.50
2018-09-30T01:38:09.977Z,1.53
2018-09-30T01:54:38.650Z,1.50
2018-09-30T01:57:12.674Z,1.57
2018-09-30T01:59:47.578Z,1.93
2018-09-30T02:02:21.477Z,1.33
2018-09-30T02:04:55.748Z,1.43
2018-09-30T02:10:19.543Z,1.30
2018-09-30T02:13:11.999Z,1.10
2018-09-30T02:15:45.976Z,1.90
2018-09-30T02:18:19.706Z,1.40
2018-09-30T02:20:53.906Z,1.47
2018-09-30T02:23:28.010Z,1.27
2018-09-30T02:26:01.933Z,1.37
2018-09-30T02:29:40.064Z,1.50
2018-09-30T02:35:13.439Z,1.40
2018-09-30T02:37:47.440Z,1.10
2018-09-30T02:40:21.880Z,1.70
2018-09-30T02:42:55.942Z,1.80
2018-09-30T02:45:30.025Z,1.33
2018-09-30T02:48:05.434Z,1.30
2018-09-30T02:50:39.293Z,1.17
2018-09-30T02:53:13.479Z,1.43
2018-09-30T02:55:48.090Z,1.70
2018-09-30T02:58:31.528Z,1.30
2018-09-30T03:01:05.592Z,1.50
2018-09-30T03:03:39.628Z,1.33
2018-09-30T03:06:18.917Z,1.07
2018-09-30T03:08:59.178Z,1.20
2018-09-30T03:11:32.887Z,1.33
2018-09-30T03:14:07.167Z,1.40
2018-09-30T03:16:41.571Z,1.50
2018-09-30T03:19:17.708Z,1.00
2018-09-30T03:21:51.791Z,1.00
2018-09-30T03:24:25.820Z,1.60
2018-09-30T03:26:59.611Z,1.10
2018-09-30T03:29:33.551Z,1.00
2018-09-30T03:32:07.615Z,1.30
2018-09-30T03:34:41.696Z,1.20
2018-09-30T03:37:15.559Z,1.07
2018-09-30T03:39:49.373Z,1.40
2018-09-30T03:42:23.527Z,1.20
2018-09-30T03:44:57.456Z,0.90
2018-09-30T03:47:31.528Z,1.10
2018-09-30T03:50:05.666Z,1.20
2018-09-30T03:52:39.814Z,1.27
2018-09-30T03:55:14.060Z,0.90
2018-09-30T03:57:48.090Z,0.87
2018-09-30T04:00:21.918Z,1.47
2018-09-30T04:02:55.714Z,1.27
2018-09-30T04:05:29.709Z,1.10
2018-09-30T04:08:03.425Z,1.30
2018-09-30T04:10:38.295Z,1.00
2018-09-30T04:13:12.238Z,0.93
2018-09-30T04:15:46.110Z,1.10
2018-09-30T04:18:19.984Z,0.80
2018-09-30T04:20:53.927Z,1.20
2018-09-30T04:23:28.032Z,1.10
2018-09-30T04:26:02.407Z,1.10
2018-09-30T04:28:36.251Z,0.83
2018-09-30T04:31:11.134Z,1.13
2018-09-30T04:33:52.238Z,1.30
2018-09-30T04:36:26.253Z,1.10
2018-09-30T04:39:00.272Z,1.07
2018-09-30T04:41:34.276Z,1.07
2018-09-30T04:44:15.504Z,1.23
2018-09-30T04:46:57.881Z,1.20
2018-09-30T04:49:31.905Z,1.30
2018-09-30T04:52:05.866Z,1.00
2018-09-30T04:54:40.138Z,1.10
2018-09-30T04:57:14.055Z,1.10
2018-09-30T05:02:26.765Z,1.20
2018-09-30T05:05:00.854Z,1.30
2018-09-30T05:10:16.003Z,1.37
2018-09-30T05:12:50.223Z,1.10
2018-09-30T05:18:44.877Z,1.15
2018-09-30T05:21:19.119Z,1.00
2018-09-30T05:23:53.039Z,1.20
2018-09-30T05:26:26.877Z,1.10
2018-09-30T05:29:02.008Z,1.30
2018-09-30T05:31:35.917Z,1.43
2018-09-30T05:34:11.343Z,1.30
2018-09-30T05:36:48.278Z,1.00
2018-09-30T05:39:23.268Z,1.53
2018-09-30T05:41:57.690Z,1.30
2018-09-30T05:44:33.213Z,0.90
2018-09-30T05:47:07.619Z,1.07
2018-09-30T05:49:41.798Z,0.93
2018-09-30T05:52:15.868Z,1.00
2018-09-30T05:54:50.391Z,1.57
2018-09-30T05:57:26.307Z,1.43
2018-09-30T06:00:01.580Z,1.30
2018-09-30T06:02:35.827Z,1.23
2018-09-30T06:05:13.426Z,1.20
2018-09-30T06:07:50.467Z,0.90
2018-09-30T06:10:24.464Z,1.00
2018-09-30T06:13:16.514Z,1.10
2018-09-30T06:18:29.115Z,0.97
2018-09-30T06:21:02.887Z,1.00
2018-09-30T06:23:37.005Z,1.00
2018-09-30T06:26:10.872Z,1.20
2018-09-30T06:28:44.971Z,1.10
2018-09-30T06:31:18.850Z,0.90
2018-09-30T06:33:53.184Z,1.50
2018-09-30T06:36:27.216Z,0.77
2018-09-30T06:39:01.393Z,1.20
2018-09-30T06:41:36.142Z,1.73
2018-09-30T06:44:10.301Z,1.00
2018-09-30T06:48:55.379Z,1.07
2018-09-30T06:54:21.365Z,1.10
2018-09-30T06:56:55.314Z,0.90
2018-09-30T06:59:29.119Z,0.60
2018-09-30T07:02:03.161Z,0.70
2018-09-30T07:04:37.028Z,0.80
2018-09-30T07:07:10.935Z,1.10
2018-09-30T07:09:44.993Z,0.80
2018-09-30T07:12:18.855Z,0.97
2018-09-30T07:14:52.539Z,0.97
2018-09-30T07:17:26.254Z,1.03
2018-09-30T07:20:00.068Z,1.17
2018-09-30T07:22:33.977Z,0.90
2018-09-30T07:25:07.957Z,1.47
2018-09-30T07:27:41.777Z,0.80
2018-09-30T07:30:15.500Z,1.17
2018-09-30T07:32:49.517Z,1.37
2018-09-30T07:35:23.492Z,0.83
2018-09-30T07:37:57.554Z,1.10
2018-09-30T07:40:31.298Z,1.20
2018-09-30T07:43:05.259Z,1.37
2018-09-30T07:45:39.317Z,1.10
2018-09-30T07:48:13.348Z,1.10
2018-09-30T07:50:47.228Z,1.17
2018-09-30T07:53:21.075Z,1.30
2018-09-30T07:55:54.919Z,1.30
2018-09-30T07:58:28.882Z,1.37
2018-09-30T08:01:02.905Z,1.23
2018-09-30T08:03:36.755Z,1.30
2018-09-30T08:06:10.567Z,0.60
2018-09-30T08:08:44.430Z,1.37
2018-09-30T08:11:18.157Z,1.40
2018-09-30T08:13:52.030Z,1.20
2018-09-30T08:16:25.789Z,1.73
2018-09-30T08:18:59.908Z,1.53
2018-09-30T08:21:34.034Z,1.50
2018-09-30T08:24:08.124Z,1.10
2018-09-30T08:26:42.112Z,1.30
2018-09-30T08:29:16.001Z,1.10
2018-09-30T08:31:50.310Z,1.23
2018-09-30T08:34:24.702Z,1.10
2018-09-30T08:36:58.528Z,1.50
2018-09-30T08:39:32.791Z,1.37
2018-09-30T08:42:07.260Z,1.50
2018-09-30T08:44:41.166Z,0.77
2018-09-30T08:47:15.175Z,1.03
2018-09-30T08:49:48.867Z,1.20
2018-09-30T08:52:22.841Z,0.70
2018-09-30T08:54:56.889Z,1.10
2018-09-30T08:57:30.982Z,0.90
2018-09-30T09:00:04.831Z,1.20
2018-09-30T09:02:38.446Z,0.60
2018-09-30T09:05:12.274Z,0.90
2018-09-30T09:07:46.039Z,0.20
2018-09-30T09:10:19.848Z,0.90
2018-09-30T09:12:53.474Z,0.80
2018-09-30T09:15:28.583Z,0.60
2018-09-30T09:18:02.566Z,0.83
2018-09-30T09:20:36.301Z,0.77
2018-09-30T09:23:10.214Z,0.60
2018-09-30T09:25:44.066Z,0.97
2018-09-30T09:28:17.751Z,0.60
2018-09-30T09:30:51.457Z,0.43
2018-09-30T09:33:25.450Z,0.80
2018-09-30T09:35:59.147Z,0.53
2018-09-30T09:38:32.915Z,1.20
2018-09-30T09:41:06.908Z,0.90
2018-09-30T09:43:40.698Z,0.70
2018-09-30T09:46:14.449Z,0.77
2018-09-30T09:48:48.217Z,0.70
2018-09-30T09:51:22.241Z,0.70
2018-09-30T09:53:56.057Z,1.13
2018-09-30T09:56:30.049Z,1.17
2018-09-30T09:59:03.978Z,1.00
2018-09-30T10:01:37.820Z,1.00
2018-09-30T10:04:12.328Z,1.13
2018-09-30T10:06:46.282Z,1.60
2018-09-30T10:09:19.949Z,1.00
2018-09-30T10:11:53.863Z,1.40
2018-09-30T10:14:27.841Z,1.07
2018-09-30T10:17:01.709Z,1.43
2018-09-30T10:19:35.892Z,1.00
2018-09-30T10:22:10.079Z,1.00
2018-09-30T10:24:43.975Z,1.20
2018-09-30T10:27:17.940Z,1.20
2018-09-30T10:29:52.080Z,1.23
2018-09-30T10:32:26.263Z,1.17
2018-09-30T10:35:00.174Z,1.10
2018-09-30T10:37:34.088Z,1.33
2018-09-30T10:40:08.329Z,1.20
2018-09-30T10:42:42.257Z,1.27
2018-09-30T10:45:16.203Z,1.60
2018-09-30T10:47:50.253Z,1.27
2018-09-30T10:50:23.919Z,0.70
2018-09-30T10:52:57.915Z,0.90
2018-09-30T10:55:31.995Z,0.80
2018-09-30T10:58:10.700Z,1.00
2018-09-30T11:00:44.402Z,1.30
2018-09-30T11:03:18.408Z,1.00
2018-09-30T11:05:52.176Z,0.77
2018-09-30T11:08:28.042Z,1.30
2018-09-30T11:11:04.431Z,1.57
2018-09-30T11:13:38.676Z,1.10
2018-09-30T11:16:17.746Z,1.03
2018-09-30T11:18:51.984Z,1.13
2018-09-30T11:21:26.258Z,1.33
2018-09-30T11:24:03.435Z,1.10
2018-09-30T11:26:39.186Z,1.40
2018-09-30T11:29:15.205Z,1.33
2018-09-30T11:34:28.459Z,1.00
2018-09-30T11:37:02.343Z,1.40
2018-09-30T11:39:41.501Z,1.57
2018-09-30T11:42:15.617Z,0.80
2018-09-30T11:44:49.521Z,1.30
2018-09-30T11:47:23.613Z,1.17
2018-09-30T11:49:57.757Z,1.50
2018-09-30T11:52:51.553Z,1.27
2018-09-30T11:55:25.512Z,1.33
2018-09-30T11:57:59.621Z,1.20
2018-09-30T12:00:40.677Z,1.20
2018-09-30T12:03:17.567Z,1.37
2018-09-30T12:05:51.747Z,0.90
2018-09-30T12:08:27.781Z,1.40
2018-09-30T12:11:09.939Z,0.93
2018-09-30T12:13:43.894Z,1.27
2018-09-30T12:16:18.270Z,1.50
2018-09-30T12:18:52.838Z,1.20
2018-09-30T12:24:26.323Z,1.40
2018-09-30T12:27:05.687Z,0.93
2018-09-30T12:29:42.554Z,1.17
2018-09-30T12:32:17.007Z,1.67
2018-09-30T12:34:52.092Z,1.03
2018-09-30T12:37:26.452Z,1.30
2018-09-30T12:40:00.510Z,1.37
2018-09-30T12:54:04.900Z,1.20
2018-09-30T12:56:39.142Z,1.10
2018-09-30T12:59:13.160Z,0.97
2018-09-30T13:01:47.380Z,1.00
2018-09-30T13:04:21.409Z,1.30
2018-09-30T13:06:55.458Z,1.00
2018-09-30T13:09:30.352Z,1.17
2018-09-30T13:12:04.401Z,1.03
2018-09-30T13:14:38.462Z,1.20
2018-09-30T13:17:15.489Z,1.10
2018-09-30T13:19:49.457Z,1.03
2018-09-30T13:22:23.428Z,1.00
2018-09-30T13:24:57.551Z,1.10
2018-09-30T13:27:31.644Z,1.10
2018-09-30T13:30:05.975Z,1.03
2018-09-30T13:35:19.388Z,1.20
2018-09-30T13:37:53.432Z,0.87
2018-09-30T13:40:27.353Z,0.40
2018-09-30T13:43:00.956Z,0.60
2018-09-30T13:45:34.749Z,0.30
2018-09-30T13:48:08.631Z,0.60
2018-09-30T13:50:42.952Z,0.30
2018-09-30T13:53:16.893Z,0.70
2018-09-30T13:55:50.853Z,0.43
2018-09-30T13:58:24.802Z,0.40
2018-09-30T14:00:58.802Z,0.53
2018-09-30T14:03:32.555Z,0.83
2018-09-30T14:06:06.869Z,0.80
2018-09-30T14:08:40.922Z,0.40
2018-09-30T14:11:14.772Z,0.83
2018-09-30T14:13:48.598Z,0.67
2018-09-30T14:16:22.561Z,0.83
2018-09-30T14:18:56.505Z,0.70
2018-09-30T14:21:30.425Z,0.37
2018-09-30T14:24:04.833Z,0.53
2018-09-30T14:26:38.973Z,0.80
2018-09-30T14:29:12.761Z,0.80
2018-09-30T14:31:46.848Z,0.60
2018-09-30T14:34:21.011Z,0.70
2018-09-30T14:36:54.943Z,0.40
2018-09-30T14:39:28.801Z,0.67
2018-09-30T14:42:02.668Z,0.40
2018-09-30T14:44:36.855Z,0.70
2018-09-30T14:47:10.882Z,0.70
2018-09-30T14:49:44.852Z,0.67
2018-09-30T14:52:18.922Z,0.80
2018-09-30T14:54:52.938Z,0.70
2018-09-30T14:57:27.529Z,0.40
2018-09-30T15:00:01.425Z,0.80
2018-09-30T15:02:35.484Z,0.70
2018-09-30T15:05:09.291Z,1.20
2018-09-30T15:07:43.299Z,1.60
2018-09-30T15:10:17.327Z,2.67
2018-09-30T15:12:51.302Z,2.40
2018-09-30T15:15:25.354Z,4.60
2018-09-30T15:17:59.430Z,0.70
2018-09-30T15:20:33.373Z,1.03
2018-09-30T15:23:07.543Z,1.20
2018-09-30T15:25:41.558Z,5.47
2018-09-30T15:28:15.439Z,3.53
2018-09-30T15:30:49.772Z,2.23
2018-09-30T15:33:23.834Z,3.60
2018-09-30T15:35:58.074Z,2.97
2018-09-30T15:38:32.064Z,3.53
2018-09-30T15:41:06.231Z,3.00
2018-09-30T15:43:39.948Z,4.10
2018-09-30T15:46:13.896Z,1.27
2018-09-30T15:48:47.753Z,0.93
2018-09-30T15:51:21.554Z,1.30
2018-09-30T15:53:55.418Z,1.10
2018-09-30T15:56:29.393Z,0.80
2018-09-30T15:59:03.317Z,0.60
2018-09-30T16:01:37.202Z,0.70
2018-09-30T16:04:11.385Z,0.30
2018-09-30T16:06:45.209Z,0.50
2018-09-30T16:09:19.177Z,0.60
2018-09-30T16:11:52.958Z,0.47
2018-09-30T16:14:26.825Z,0.70
2018-09-30T16:17:00.634Z,0.40
2018-09-30T16:19:34.519Z,0.50
2018-09-30T16:22:08.280Z,0.43
2018-09-30T16:24:42.190Z,0.40
2018-09-30T16:27:16.383Z,0.30
2018-09-30T16:29:50.427Z,0.27
2018-09-30T16:32:24.305Z,0.63
2018-09-30T16:34:58.135Z,0.60
2018-09-30T16:37:31.913Z,0.60
2018-09-30T16:40:06.234Z,0.30
2018-09-30T16:42:40.316Z,0.57
2018-09-30T16:45:14.540Z,0.10
2018-09-30T16:47:48.564Z,0.40
2018-09-30T16:50:22.467Z,0.43
2018-09-30T16:52:56.274Z,0.60
2018-09-30T16:55:30.303Z,0.57
2018-09-30T16:58:04.110Z,0.57
2018-09-30T17:00:38.062Z,0.27
2018-09-30T17:03:12.171Z,0.40
2018-09-30T17:05:46.114Z,0.70
2018-09-30T17:08:19.894Z,0.33
2018-09-30T17:10:53.894Z,0.10
2018-09-30T17:13:27.766Z,0.57
2018-09-30T17:16:01.447Z,0.60
2018-09-30T17:18:35.353Z,0.30
2018-09-30T17:21:09.241Z,0.30
2018-09-30T17:23:43.197Z,0.43
2018-09-30T17:26:17.562Z,0.37
2018-09-30T17:28:51.418Z,0.40
2018-09-30T17:31:25.924Z,0.60
2018-09-30T17:34:00.036Z,0.20
2018-09-30T17:36:34.174Z,0.43
2018-09-30T17:39:08.921Z,0.40
2018-09-30T17:41:44.128Z,0.50
2018-09-30T17:44:18.855Z,0.60
2018-09-30T17:46:53.442Z,0.70
2018-09-30T17:49:29.387Z,0.67
2018-09-30T17:52:04.520Z,2.13
2018-09-30T17:54:49.414Z,1.00
2018-09-30T17:57:31.191Z,0.90
2018-09-30T18:00:13.652Z,0.80
2018-09-30T18:02:54.874Z,0.90
2018-09-30T18:05:29.310Z,0.90
2018-09-30T18:08:04.228Z,0.63
2018-09-30T18:16:28.976Z,0.90
2018-09-30T18:19:14.141Z,0.73
2018-09-30T18:33:14.632Z,0.80
2018-09-30T18:39:15.748Z,1.10
2018-09-30T18:41:57.941Z,1.00
2018-09-30T18:44:37.377Z,0.90
2018-09-30T18:50:39.066Z,0.83
2018-09-30T18:56:21.168Z,1.00
2018-09-30T18:59:01.928Z,0.80
2018-09-30T19:01:36.425Z,0.97
2018-09-30T19:04:14.649Z,1.10
2018-09-30T19:06:48.987Z,1.57
2018-09-30T19:09:24.894Z,1.53
2018-09-30T19:11:58.786Z,1.10
2018-09-30T19:14:33.030Z,1.47
2018-09-30T19:17:07.046Z,1.10
2018-09-30T19:19:41.029Z,1.30
2018-09-30T19:22:15.761Z,0.87
2018-09-30T19:24:52.878Z,1.30
2018-09-30T19:27:26.817Z,0.83
2018-09-30T19:30:03.740Z,1.00
2018-09-30T19:32:38.826Z,0.90
2018-09-30T19:35:13.568Z,0.70
2018-09-30T19:37:55.601Z,0.87
2018-09-30T19:43:30.283Z,1.57
2018-09-30T19:46:05.525Z,1.10
2018-09-30T19:48:40.360Z,0.90
2018-09-30T19:51:22.134Z,1.03
2018-09-30T19:53:57.521Z,0.80
2018-09-30T19:56:31.715Z,1.17
2018-09-30T19:59:05.966Z,1.20
2018-09-30T20:02:00.218Z,1.37
2018-09-30T20:04:34.280Z,1.10
2018-09-30T20:07:09.164Z,1.13
2018-09-30T20:09:43.328Z,0.93
2018-09-30T20:12:16.994Z,0.80
2018-09-30T20:14:51.038Z,0.97
2018-09-30T20:17:25.240Z,1.20
2018-09-30T20:19:59.319Z,1.10
2018-09-30T20:22:33.930Z,1.00
2018-09-30T20:25:08.093Z,1.10
2018-09-30T20:27:42.508Z,1.13
2018-09-30T20:30:16.797Z,1.07
2018-09-30T20:32:53.558Z,1.20
2018-09-30T20:35:27.624Z,1.00
2018-09-30T20:38:02.102Z,1.30
2018-09-30T20:40:38.657Z,1.13
2018-09-30T20:43:19.425Z,1.20
2018-09-30T20:46:00.724Z,1.00
2018-09-30T20:48:34.875Z,1.10
2018-09-30T20:51:09.746Z,1.63
2018-09-30T20:53:44.055Z,1.30
2018-09-30T20:56:18.145Z,1.20
2018-09-30T20:58:52.270Z,1.13
2018-09-30T21:01:26.278Z,1.42
2018-09-30T21:04:00.604Z,1.27
2018-09-30T21:06:36.050Z,1.40
2018-09-30T21:09:11.643Z,1.10
2018-09-30T21:11:45.453Z,1.60
2018-09-30T21:14:19.569Z,1.20
2018-09-30T21:16:54.439Z,1.30
2018-09-30T21:19:28.583Z,1.60
2018-09-30T21:22:02.714Z,1.23
2018-09-30T21:24:36.744Z,1.60
2018-09-30T21:27:16.120Z,1.33
2018-09-30T21:29:50.276Z,1.60
2018-09-30T21:32:24.409Z,1.50
2018-09-30T21:34:58.963Z,1.33
2018-09-30T21:37:40.577Z,1.50
2018-09-30T21:40:14.999Z,1.30
2018-09-30T21:42:49.731Z,2.00
2018-09-30T21:45:27.200Z,1.50
2018-09-30T21:48:01.072Z,1.50
2018-09-30T21:50:38.397Z,1.20
2018-09-30T21:53:13.763Z,1.30
2018-09-30T21:55:47.666Z,1.47
2018-09-30T21:58:21.531Z,1.57
2018-09-30T22:01:00.621Z,1.93
2018-09-30T22:03:36.996Z,1.60
2018-09-30T22:06:10.878Z,1.70
2018-09-30T22:08:44.882Z,1.83
2018-09-30T22:11:18.747Z,1.80
2018-09-30T22:13:52.810Z,2.00
2018-09-30T22:16:26.632Z,1.80
2018-09-30T22:19:00.499Z,2.10
2018-09-30T22:21:34.518Z,2.03
2018-09-30T22:24:08.483Z,1.40
2018-09-30T22:26:42.337Z,1.77
2018-09-30T22:29:16.137Z,2.03
2018-09-30T22:31:49.968Z,2.10
2018-09-30T22:34:24.074Z,1.63
2018-09-30T22:36:57.999Z,1.80
2018-09-30T22:39:31.759Z,1.70
2018-09-30T22:42:05.698Z,1.60
2018-09-30T22:44:39.827Z,2.00
2018-09-30T22:47:13.663Z,1.90
2018-09-30T22:49:47.722Z,2.40
2018-09-30T22:52:21.764Z,2.47
2018-09-30T22:54:55.555Z,2.20
2018-09-30T22:57:29.350Z,2.10
2018-09-30T23:00:03.300Z,2.07
2018-09-30T23:02:37.268Z,2.10
2018-09-30T23:05:11.220Z,1.93
2018-09-30T23:07:45.207Z,1.57
2018-09-30T23:10:19.240Z,2.20
2018-09-30T23:12:54.027Z,1.73
2018-09-30T23:15:27.850Z,1.97
2018-09-30T23:18:01.871Z,2.40
2018-09-30T23:20:35.603Z,1.80
2018-09-30T23:23:09.583Z,1.73
2018-09-30T23:25:43.493Z,1.90
2018-09-30T23:28:17.355Z,1.93
2018-09-30T23:30:51.189Z,1.73
2018-09-30T23:33:24.968Z,2.10
2018-09-30T23:35:58.610Z,1.87
2018-09-30T23:38:32.262Z,2.03
2018-09-30T23:41:06.074Z,2.00
2018-09-30T23:43:39.964Z,1.80
2018-09-30T23:46:13.752Z,1.87
2018-09-30T23:48:47.685Z,2.10
2018-09-30T23:51:21.438Z,1.77
2018-09-30T23:53:55.339Z,1.77
2018-09-30T23:56:29.270Z,1.97
2018-09-30T23:59:03.253Z,2.00
